• Join FlightAware (Why Join?)
  • Login
  • US Flag 
11:20PM EDT


 

Airport Tracker/Info


-or-


 

Live Flight TrackerFlight Track Log ✈ SWA662 ✈ 11-Jun-2013 ✈ KLAX - KDEN

Flight Track Log - Related Links

Times and Time Zones

All times are in EDT time to prevent confusion due to time zone crossing. See the SWA662 flight status page for this flight to view local times or setup timezone preferences in your user account.

Time Position Orientation Groundspeed Altitude Reporting Facility
EDT Latitude Longitude Course Direction KTS MPH feet Rate Location/Type
11:31PM 33.9500 -118.4833 242° Southwest 201 231 2,200  Level Southern California TRACON
11:31PM 33.9381 -118.5106 242° Southwest 216 249 3,200 2,640 Climbing Los Angeles Center
11:32PM 33.9164 -118.5825 250° West 240 276 6,100 2,880 Climbing Los Angeles Center
11:34PM 33.8686 -118.5353 141° Southeast 265 305 9,200 2,340 Climbing Los Angeles Center
11:35PM 33.9189 -118.4547 53° Northeast 312 359 11,000 1,680 Climbing Los Angeles Center
11:36PM 33.9717 -118.3669 54° Northeast 354 407 12,700 1,980 Climbing Los Angeles Center
11:37PM 34.0353 -118.2525 56° Northeast 400 460 15,200 2,580 Climbing Los Angeles Center
11:38PM 34.1025 -118.1347 55° Northeast 421 484 18,000 2,580 Climbing Los Angeles Center
11:39PM 34.1853 -117.9886 56° Northeast 437 503 20,600 2,220 Climbing Los Angeles Center
11:40PM 34.2581 -117.8594 56° Northeast 459 528 22,600 1,920 Climbing Los Angeles Center
11:41PM 34.3325 -117.7250 56° Northeast 476 548 24,600 1,980 Climbing Los Angeles Center
11:42PM 34.4136 -117.5792 56° Northeast 490 564 26,700 1,680 Climbing Los Angeles Center
11:43PM 34.4903 -117.4400 56° Northeast 498 573 28,100 1,380 Climbing Los Angeles Center
11:44PM 34.5697 -117.2956 56° Northeast 515 593 29,600 1,560 Climbing Los Angeles Center
11:45PM 34.6486 -117.1514 56° Northeast 517 595 31,400 1,560 Climbing Los Angeles Center
11:46PM 34.7269 -117.0064 57° Northeast 517 595 32,900 1,440 Climbing Los Angeles Center
11:47PM 34.8064 -116.8606 56° Northeast 519 597 34,400 1,560 Climbing Los Angeles Center
11:48PM 34.8994 -116.6869 57° Northeast 515 593 36,200 1,320 Climbing Los Angeles Center
11:49PM 34.9672 -116.5703 55° Northeast 514 592 37,200 1,080 Climbing Los Angeles Center
11:50PM 35.0806 -116.4264 46° Northeast 506 582 38,500 840 Climbing Los Angeles Center
11:51PM 35.1772 -116.3067 45° Northeast 499 574 39,000 240 Climbing Los Angeles Center
11:52PM 35.2742 -116.1858 45° Northeast 497 572 39,000  Level Los Angeles Center
11:53PM 35.3681 -116.0642 47° Northeast 495 570 39,000  Level Los Angeles Center
11:54PM 35.4528 -115.8897 59° Northeast 498 573 39,000  Level Los Angeles Center
11:55PM 35.5156 -115.7428 62° Northeast 496 571 39,000  Level Los Angeles Center
11:56PM 35.5772 -115.5917 63° Northeast 496 571 39,000  Level Los Angeles Center
11:57PM 35.6403 -115.4414 63° Northeast 496 571 39,000  Level Los Angeles Center
11:58PM 35.7008 -115.2883 64° Northeast 500 575 39,000  Level Los Angeles Center
11:59PM 35.7733 -115.1072 64° Northeast 496 571 39,000  Level Los Angeles Center
12:00AM 35.8350 -114.9539 64° Northeast 501 577 39,000  Level Los Angeles Center
12:01AM 35.8969 -114.7994 64° Northeast 505 581 39,000  Level Los Angeles Center
12:02AM 35.9697 -114.6142 64° Northeast 503 579 39,000  Level Los Angeles Center
12:04AM 36.0306 -114.4608 64° Northeast 502 578 39,000  Level Los Angeles Center
12:05AM 36.0906 -114.3056 64° Northeast 503 579 39,000  Level Los Angeles Center
12:06AM 36.1519 -114.1506 64° Northeast 503 579 39,000  Level Los Angeles Center
12:07AM 36.2242 -113.9644 64° Northeast 502 578 39,000  Level Los Angeles Center
12:08AM 36.2839 -113.8103 64° Northeast 500 575 39,000  Level Los Angeles Center
12:09AM 36.3431 -113.6539 65° Northeast 501 577 39,000  Level Los Angeles Center
12:10AM 36.4036 -113.4983 64° Northeast 501 577 39,000  Level Los Angeles Center
12:11AM 36.4619 -113.3422 65° Northeast 500 575 39,000  Level Los Angeles Center
12:12AM 36.5233 -113.1828 64° Northeast 502 578 39,000  Level Los Angeles Center
12:13AM 36.5825 -113.0272 65° Northeast 502 578 39,000  Level Los Angeles Center
12:14AM 36.6417 -112.8697 65° Northeast 504 580 39,000  Level Los Angeles Center
12:15AM 36.7122 -112.6806 65° Northeast 505 581 39,000  Level Los Angeles Center
12:16AM 36.7708 -112.5222 65° Northeast 506 582 39,000  Level Los Angeles Center
12:17AM 36.8292 -112.3653 65° Northeast 504 580 39,000  Level Los Angeles Center
12:18AM 36.8878 -112.2069 65° Northeast 505 581 39,000  Level Los Angeles Center
12:19AM 36.9456 -112.0492 65° Northeast 505 581 39,000  Level Los Angeles Center
12:20AM 37.0022 -111.8919 66° East 501 577 39,000  Level Los Angeles Center
12:21AM 37.0492 -111.7644 65° Northeast 504 580 39,000  Level Los Angeles Center
12:22AM 37.1297 -111.5422 65° Northeast 504 580 39,000  Level Los Angeles Center
12:22AM 37.1517 -111.4783 67° East 501 577 39,000  Level Denver Center
12:23AM 37.2078 -111.3192 66° East 502 578 39,000  Level Denver Center
12:24AM 37.2650 -111.1592 66° East 504 580 39,000  Level Denver Center
12:25AM 37.3208 -110.9969 67° East 507 583 39,000  Level Denver Center
12:26AM 37.3786 -110.8361 66° East 508 585 39,000  Level Denver Center
12:27AM 37.4342 -110.6747 67° East 507 583 39,000  Level Denver Center
12:28AM 37.4931 -110.5067 66° East 504 580 39,000  Level Denver Center
12:29AM 37.5458 -110.3519 67° East 503 579 39,000  Level Denver Center
12:31AM 37.6081 -110.1719 66° East 500 575 39,000  Level Denver Center
12:32AM 37.6603 -110.0172 67° East 501 577 39,000  Level Denver Center
12:33AM 37.7131 -109.8631 67° East 500 575 39,000  Level Denver Center
12:34AM 37.7742 -109.6833 67° East 499 574 39,000  Level Denver Center
12:35AM 37.8256 -109.5289 67° East 497 572 39,000  Level Denver Center
12:36AM 37.8769 -109.3750 67° East 497 572 39,000  Level Denver Center
12:37AM 37.9372 -109.1939 67° East 499 574 39,000  Level Denver Center
12:38AM 37.9983 -109.0447 62° Northeast 497 572 39,000  Level Denver Center
12:39AM 38.0706 -108.8697 62° Northeast 498 573 39,000  Level Denver Center
12:40AM 38.1317 -108.7194 63° Northeast 501 577 39,000  Level Denver Center
12:41AM 38.1925 -108.5711 62° Northeast 498 573 39,000  Level Denver Center
12:42AM 38.2644 -108.3967 62° Northeast 499 574 39,000  Level Denver Center
12:43AM 38.3247 -108.2464 63° Northeast 499 574 39,000  Level Denver Center
12:44AM 38.3869 -108.0950 62° Northeast 504 580 39,000  Level Denver Center
12:45AM 38.4583 -107.9175 63° Northeast 506 582 39,000  Level Denver Center
12:46AM 38.5192 -107.7639 63° Northeast 508 585 39,000  Level Denver Center
12:47AM 38.5897 -107.5861 63° Northeast 505 581 39,000  Level Denver Center
12:48AM 38.6500 -107.4339 63° Northeast 504 580 39,000  Level Denver Center
12:49AM 38.7094 -107.2825 63° Northeast 499 574 39,000 -360 Level Denver Center
12:50AM 38.7644 -107.1408 63° Northeast 498 573 38,300 -1,620 Descending Denver Center
12:51AM 38.8506 -106.9192 63° Northeast 500 575 35,500 -2,220 Descending Denver Center
12:52AM 38.9186 -106.7453 63° Northeast 513 590 33,400 -2,040 Descending Denver Center
12:53AM 38.9792 -106.5875 64° Northeast 514 592 31,400 -1,920 Descending Denver Center
12:54AM 39.0394 -106.4294 64° Northeast 515 593 29,500 -2,040 Descending Denver Center
12:55AM 39.1092 -106.2475 64° Northeast 509 586 27,300 -1,620 Descending Denver Center
12:56AM 39.1586 -106.1133 65° Northeast 490 564 26,300 -1,440 Descending Denver Center
12:57AM 39.2131 -105.9697 64° Northeast 456 525 24,500 -1,980 Descending Denver Center
12:58AM 39.2661 -105.8272 64° Northeast 444 511 22,400 -2,100 Descending Denver Center
12:59AM 39.3172 -105.6908 64° Northeast 429 494 20,300 -1,980 Descending Denver Center
01:00AM 39.3758 -105.5308 65° Northeast 415 478 18,400 -1,380 Descending Denver Center
01:01AM 39.3989 -105.3986 77° East 417 480 17,600 -900 Descending Denver Center
01:02AM 39.4053 -105.2592 87° East 366 421 16,600 -1,440 Descending Denver Center
01:03AM 39.4117 -105.1347 86° East 349 402 14,700 -1,680 Descending Denver Center
01:04AM 39.4164 -105.0092 87° East 350 403 13,200 -1,020 Descending Denver Center
01:05AM 39.4244 -104.8864 85° East 343 395 12,700 -900 Descending Denver Center
01:06AM 39.4578 -104.7783 68° East 333 383 11,400 -780 Descending Denver Center
01:07AM 39.5047 -104.6983 53° Northeast 277 319 11,200 -540 Descending Denver Center
01:08AM 39.5444 -104.6306 53° Northeast 238 274 10,400 -900 Descending Denver Center
01:09AM 39.5875 -104.6044 25° Northeast 200 230 9,400 -720 Descending Denver Center
01:10AM 39.6372 -104.6361 334° Northwest 182 209 9,000 -720 Descending Denver Center
01:11AM 39.6847 -104.6433 353° North 173 199 8,000 -840 Descending Denver Center
01:12AM 39.7289 -104.6428 North 160 184 7,400 -780 Descending Denver Center
01:13AM 39.7736 -104.6425 360° North 160 184 6,500 -900 Descending Denver Center
01:14AM 39.8161 -104.6419 North 154 177 5,700 -600 Descending Denver Center
01:15AM 39.8525 -104.6417 360° North 136 157 5,300 -420 Descending Denver Center
01:17AM 39.8500 -104.6667 North  Level FlightAware Approximate
01:24AM 39.8617 -104.6732 North  Level Estimated
01:25AM 39.8617 -104.6732 North  Level Estimated
01:26AM 39.8617 -104.6732 North  Level Estimated